sensor_id;sensor_type;location;lat;lon;timestamp;pressure;altitude;pressure_sealevel;temperature;humidity
38718;BME280;24468;52.128;9.278;2023-04-28T00:01:15;100747.22;;;9.43;80.96
38718;BME280;24468;52.128;9.278;2023-04-28T00:03:41;100752.22;;;9.54;80.77
38718;BME280;24468;52.128;9.278;2023-04-28T00:06:06;100749.47;;;9.55;79.47
38718;BME280;24468;52.128;9.278;2023-04-28T00:08:32;100749.03;;;9.43;79.64
38718;BME280;24468;52.128;9.278;2023-04-28T00:10:58;100747.53;;;9.59;78.41
38718;BME280;24468;52.128;9.278;2023-04-28T00:13:23;100734.66;;;9.67;76.80
38718;BME280;24468;52.128;9.278;2023-04-28T00:15:49;100747.59;;;9.81;76.17
38718;BME280;24468;52.128;9.278;2023-04-28T00:18:18;100742.50;;;9.73;76.44
38718;BME280;24468;52.128;9.278;2023-04-28T00:20:43;100739.28;;;9.87;75.97
38718;BME280;24468;52.128;9.278;2023-04-28T00:23:09;100733.25;;;9.80;76.68
38718;BME280;24468;52.128;9.278;2023-04-28T00:25:34;100734.66;;;9.67;77.68
38718;BME280;24468;52.128;9.278;2023-04-28T00:28:00;100730.56;;;9.80;77.31
38718;BME280;24468;52.128;9.278;2023-04-28T00:30:26;100724.47;;;9.99;76.58
38718;BME280;24468;52.128;9.278;2023-04-28T00:32:51;100714.94;;;9.90;77.37
38718;BME280;24468;52.128;9.278;2023-04-28T00:35:17;100719.00;;;10.00;75.86
38718;BME280;24468;52.128;9.278;2023-04-28T00:37:43;100703.75;;;10.01;75.89
38718;BME280;24468;52.128;9.278;2023-04-28T00:40:09;100705.66;;;9.97;75.98
38718;BME280;24468;52.128;9.278;2023-04-28T00:42:35;100707.53;;;9.95;76.06
38718;BME280;24468;52.128;9.278;2023-04-28T00:45:01;100697.78;;;9.93;76.13
38718;BME280;24468;52.128;9.278;2023-04-28T00:47:32;100700.97;;;10.02;75.79
38718;BME280;24468;52.128;9.278;2023-04-28T00:49:59;100692.88;;;10.02;75.14
38718;BME280;24468;52.128;9.278;2023-04-28T00:52:27;100692.00;;;10.02;75.59
38718;BME280;24468;52.128;9.278;2023-04-28T00:54:53;100690.06;;;10.06;74.99
38718;BME280;24468;52.128;9.278;2023-04-28T00:57:19;100676.53;;;10.07;75.03
38718;BME280;24468;52.128;9.278;2023-04-28T00:59:44;100685.50;;;10.08;75.97
38718;BME280;24468;52.128;9.278;2023-04-28T01:02:10;100680.41;;;10.00;76.67
38718;BME280;24468;52.128;9.278;2023-04-28T01:04:44;100686.38;;;10.08;76.52
38718;BME280;24468;52.128;9.278;2023-04-28T01:07:11;100687.06;;;10.13;76.49
38718;BME280;24468;52.128;9.278;2023-04-28T01:09:36;100671.84;;;10.12;76.33
38718;BME280;24468;52.128;9.278;2023-04-28T01:12:02;100672.88;;;10.08;76.72
38718;BME280;24468;52.128;9.278;2023-04-28T01:14:27;100672.75;;;10.11;76.47
38718;BME280;24468;52.128;9.278;2023-04-28T01:16:53;100664.66;;;10.11;76.05
38718;BME280;24468;52.128;9.278;2023-04-28T01:19:20;100666.38;;;10.14;76.35
38718;BME280;24468;52.128;9.278;2023-04-28T01:21:49;100665.50;;;10.13;75.93
38718;BME280;24468;52.128;9.278;2023-04-28T01:24:16;100663.41;;;10.20;75.95
38718;BME280;24468;52.128;9.278;2023-04-28T01:26:42;100661.63;;;10.20;75.29
38718;BME280;24468;52.128;9.278;2023-04-28T01:29:07;100653.59;;;10.19;75.21
38718;BME280;24468;52.128;9.278;2023-04-28T01:31:33;100655.31;;;10.20;74.75
38718;BME280;24468;52.128;9.278;2023-04-28T01:33:58;100647.22;;;10.20;74.68
38718;BME280;24468;52.128;9.278;2023-04-28T01:36:25;100650.28;;;10.12;75.59
38718;BME280;24468;52.128;9.278;2023-04-28T01:38:51;100648.81;;;10.03;76.63
38718;BME280;24468;52.128;9.278;2023-04-28T01:41:17;100654.09;;;10.07;76.14
38718;BME280;24468;52.128;9.278;2023-04-28T01:43:43;100648.63;;;10.08;75.69
38718;BME280;24468;52.128;9.278;2023-04-28T01:46:09;100639.84;;;10.03;75.93
38718;BME280;24468;52.128;9.278;2023-04-28T01:48:34;100633.09;;;10.15;75.37
38718;BME280;24468;52.128;9.278;2023-04-28T01:51:00;100641.38;;;10.10;74.75
38718;BME280;24468;52.128;9.278;2023-04-28T01:53:26;100642.19;;;10.12;75.02
38718;BME280;24468;52.128;9.278;2023-04-28T01:55:52;100644.94;;;10.11;75.61
38718;BME280;24468;52.128;9.278;2023-04-28T01:58:18;100640.63;;;10.07;75.86
38718;BME280;24468;52.128;9.278;2023-04-28T02:00:44;100631.88;;;10.00;76.33
38718;BME280;24468;52.128;9.278;2023-04-28T02:03:10;100627.72;;;10.15;75.24
38718;BME280;24468;52.128;9.278;2023-04-28T02:05:36;100617.84;;;10.14;75.18
38718;BME280;24468;52.128;9.278;2023-04-28T02:08:02;100611.28;;;9.99;76.30
38718;BME280;24468;52.128;9.278;2023-04-28T02:10:27;100612.09;;;10.01;76.37
38718;BME280;24468;52.128;9.278;2023-04-28T02:12:53;100606.63;;;10.02;75.99
38718;BME280;24468;52.128;9.278;2023-04-28T02:15:19;100611.44;;;9.94;76.65
38718;BME280;24468;52.128;9.278;2023-04-28T02:17:44;100613.75;;;10.03;75.73
38718;BME280;24468;52.128;9.278;2023-04-28T02:20:10;100601.38;;;9.99;75.77
38718;BME280;24468;52.128;9.278;2023-04-28T02:22:36;100609.84;;;9.90;76.10
38718;BME280;24468;52.128;9.278;2023-04-28T02:25:02;100612.72;;;9.86;77.23
38718;BME280;24468;52.128;9.278;2023-04-28T02:27:27;100603.94;;;10.02;76.41
38718;BME280;24468;52.128;9.278;2023-04-28T02:29:53;100597.09;;;10.16;75.66
38718;BME280;24468;52.128;9.278;2023-04-28T02:32:18;100593.16;;;10.02;76.35
38718;BME280;24468;52.128;9.278;2023-04-28T02:34:44;100587.59;;;10.07;76.03
38718;BME280;24468;52.128;9.278;2023-04-28T02:37:10;100577.72;;;10.06;75.73
38718;BME280;24468;52.128;9.278;2023-04-28T02:39:36;100584.06;;;10.05;76.98
38718;BME280;24468;52.128;9.278;2023-04-28T02:42:02;100575.84;;;10.08;76.88
38718;BME280;24468;52.128;9.278;2023-04-28T02:44:30;100572.09;;;10.12;75.59
38718;BME280;24468;52.128;9.278;2023-04-28T02:46:55;100578.50;;;10.10;75.39
38718;BME280;24468;52.128;9.278;2023-04-28T02:49:21;100578.16;;;9.95;75.98
38718;BME280;24468;52.128;9.278;2023-04-28T02:51:46;100575.97;;;10.05;75.53
38718;BME280;24468;52.128;9.278;2023-04-28T02:54:12;100571.13;;;10.13;75.61
38718;BME280;24468;52.128;9.278;2023-04-28T02:56:38;100566.50;;;10.17;75.30
38718;BME280;24468;52.128;9.278;2023-04-28T02:59:05;100566.75;;;10.11;75.71
38718;BME280;24468;52.128;9.278;2023-04-28T03:01:31;100569.41;;;10.12;76.51
38718;BME280;24468;52.128;9.278;2023-04-28T03:03:57;100563.69;;;9.98;77.99
38718;BME280;24468;52.128;9.278;2023-04-28T03:06:22;100561.69;;;10.03;77.82
38718;BME280;24468;52.128;9.278;2023-04-28T03:08:48;100558.97;;;10.03;77.89
38718;BME280;24468;52.128;9.278;2023-04-28T03:11:14;100556.41;;;10.00;78.10
38718;BME280;24468;52.128;9.278;2023-04-28T03:13:39;100553.28;;;9.89;79.26
38718;BME280;24468;52.128;9.278;2023-04-28T03:16:05;100543.22;;;9.94;79.14
38718;BME280;24468;52.128;9.278;2023-04-28T03:18:32;100546.91;;;9.91;78.47
38718;BME280;24468;52.128;9.278;2023-04-28T03:20:57;100533.47;;;9.90;78.29
38718;BME280;24468;52.128;9.278;2023-04-28T03:23:23;100540.78;;;9.88;79.23
38718;BME280;24468;52.128;9.278;2023-04-28T03:25:48;100543.47;;;9.88;78.72
38718;BME280;24468;52.128;9.278;2023-04-28T03:28:14;100527.53;;;9.82;78.87
38718;BME280;24468;52.128;9.278;2023-04-28T03:30:40;100527.47;;;9.83;78.37
38718;BME280;24468;52.128;9.278;2023-04-28T03:33:05;100517.72;;;9.80;78.10
38718;BME280;24468;52.128;9.278;2023-04-28T03:35:31;100519.84;;;9.72;78.01
38718;BME280;24468;52.128;9.278;2023-04-28T03:37:57;100517.53;;;9.85;77.45
38718;BME280;24468;52.128;9.278;2023-04-28T03:40:22;100512.59;;;9.74;78.01
38718;BME280;24468;52.128;9.278;2023-04-28T03:42:48;100514.56;;;9.91;77.21
38718;BME280;24468;52.128;9.278;2023-04-28T03:45:13;100514.50;;;9.93;76.44
38718;BME280;24468;52.128;9.278;2023-04-28T03:47:39;100516.44;;;9.89;76.90
38718;BME280;24468;52.128;9.278;2023-04-28T03:50:05;100515.16;;;9.98;76.39
38718;BME280;24468;52.128;9.278;2023-04-28T03:52:31;100511.69;;;9.96;76.65
38718;BME280;24468;52.128;9.278;2023-04-28T03:54:56;100508.22;;;9.92;77.08
38718;BME280;24468;52.128;9.278;2023-04-28T03:57:22;100510.47;;;10.03;76.75
38718;BME280;24468;52.128;9.278;2023-04-28T03:59:47;100505.28;;;9.98;76.57
38718;BME280;24468;52.128;9.278;2023-04-28T04:02:13;100499.00;;;9.98;77.01
38718;BME280;24468;52.128;9.278;2023-04-28T04:04:38;100505.28;;;9.98;77.15
38718;BME280;24468;52.128;9.278;2023-04-28T04:07:04;100503.06;;;10.08;76.86
38718;BME280;24468;52.128;9.278;2023-04-28T04:09:30;100487.97;;;10.04;76.91
38718;BME280;24468;52.128;9.278;2023-04-28T04:11:55;100492.56;;;10.02;77.33
38718;BME280;24468;52.128;9.278;2023-04-28T04:14:21;100491.88;;;10.17;77.47
38718;BME280;24468;52.128;9.278;2023-04-28T04:16:47;100500.78;;;9.99;78.24
38718;BME280;24468;52.128;9.278;2023-04-28T04:19:12;100492.63;;;10.21;78.00
38718;BME280;24468;52.128;9.278;2023-04-28T04:21:38;100492.69;;;10.19;76.91
38718;BME280;24468;52.128;9.278;2023-04-28T04:24:04;100495.19;;;10.24;76.33
38718;BME280;24468;52.128;9.278;2023-04-28T04:26:30;100498.50;;;10.31;75.78
38718;BME280;24468;52.128;9.278;2023-04-28T04:28:55;100490.22;;;10.35;76.62
38718;BME280;24468;52.128;9.278;2023-04-28T04:31:21;100489.41;;;10.33;76.78
38718;BME280;24468;52.128;9.278;2023-04-28T04:33:47;100488.53;;;10.33;77.66
38718;BME280;24468;52.128;9.278;2023-04-28T04:36:12;100472.31;;;10.34;77.88
38718;BME280;24468;52.128;9.278;2023-04-28T04:38:38;100477.63;;;10.36;78.49
38718;BME280;24468;52.128;9.278;2023-04-28T04:41:04;100484.16;;;10.30;78.15
38718;BME280;24468;52.128;9.278;2023-04-28T04:43:29;100476.03;;;10.32;78.58
38718;BME280;24468;52.128;9.278;2023-04-28T04:45:55;100477.91;;;10.30;78.91
38718;BME280;24468;52.128;9.278;2023-04-28T04:48:20;100475.88;;;10.35;78.64
38718;BME280;24468;52.128;9.278;2023-04-28T04:50:46;100469.38;;;10.39;77.94
38718;BME280;24468;52.128;9.278;2023-04-28T04:53:12;100469.38;;;10.39;77.54
38718;BME280;24468;52.128;9.278;2023-04-28T04:55:37;100473.56;;;10.46;77.01
38718;BME280;24468;52.128;9.278;2023-04-28T04:58:03;100476.31;;;10.44;76.83
38718;BME280;24468;52.128;9.278;2023-04-28T05:00:29;100478.69;;;10.52;76.70
38718;BME280;24468;52.128;9.278;2023-04-28T05:02:54;100475.06;;;10.53;76.30
38718;BME280;24468;52.128;9.278;2023-04-28T05:05:20;100465.88;;;10.57;77.25
38718;BME280;24468;52.128;9.278;2023-04-28T05:07:46;100457.09;;;10.52;77.21
38718;BME280;24468;52.128;9.278;2023-04-28T05:10:11;100470.97;;;10.63;77.48
38718;BME280;24468;52.128;9.278;2023-04-28T05:12:37;100463.50;;;10.70;77.15
38718;BME280;24468;52.128;9.278;2023-04-28T05:15:06;100450.53;;;10.78;76.72
38718;BME280;24468;52.128;9.278;2023-04-28T05:17:33;100457.75;;;10.78;75.90
38718;BME280;24468;52.128;9.278;2023-04-28T05:19:58;100450.28;;;10.83;76.03
38718;BME280;24468;52.128;9.278;2023-04-28T05:22:24;100448.03;;;10.93;75.53
38718;BME280;24468;52.128;9.278;2023-04-28T05:24:50;100445.78;;;10.83;77.05
38718;BME280;24468;52.128;9.278;2023-04-28T05:27:17;100450.88;;;10.89;77.33
38718;BME280;24468;52.128;9.278;2023-04-28T05:29:42;100448.63;;;10.99;77.06
38718;BME280;24468;52.128;9.278;2023-04-28T05:32:08;100441.41;;;11.00;76.81
38718;BME280;24468;52.128;9.278;2023-04-28T05:34:33;100441.19;;;11.04;77.36
38718;BME280;24468;52.128;9.278;2023-04-28T05:36:59;100441.47;;;11.17;76.41
38718;BME280;24468;52.128;9.278;2023-04-28T05:39:25;100434.59;;;11.29;75.34
38718;BME280;24468;52.128;9.278;2023-04-28T05:41:50;100441.81;;;11.28;75.50
38718;BME280;24468;52.128;9.278;2023-04-28T05:44:16;100430.06;;;11.29;75.74
38718;BME280;24468;52.128;9.278;2023-04-28T05:46:41;100440.81;;;11.48;75.14
38718;BME280;24468;52.128;9.278;2023-04-28T05:49:09;100441.41;;;11.55;74.08
38718;BME280;24468;52.128;9.278;2023-04-28T05:51:35;100437.75;;;11.56;75.08
38718;BME280;24468;52.128;9.278;2023-04-28T05:54:00;100437.09;;;11.51;76.49
38718;BME280;24468;52.128;9.278;2023-04-28T05:56:26;100430.69;;;11.71;76.49
38718;BME280;24468;52.128;9.278;2023-04-28T05:58:51;100439.22;;;11.80;76.34
38718;BME280;24468;52.128;9.278;2023-04-28T06:01:17;100438.13;;;12.02;76.70
38718;BME280;24468;52.128;9.278;2023-04-28T06:03:43;100442.72;;;11.83;76.88
38718;BME280;24468;52.128;9.278;2023-04-28T06:06:09;100439.25;;;11.98;76.04
38718;BME280;24468;52.128;9.278;2023-04-28T06:08:36;100441.16;;;12.13;75.74
38718;BME280;24468;52.128;9.278;2023-04-28T06:11:02;100449.63;;;12.40;73.32
38718;BME280;24468;52.128;9.278;2023-04-28T06:13:27;100440.84;;;12.53;72.47
38718;BME280;24468;52.128;9.278;2023-04-28T06:15:53;100439.47;;;12.28;72.74
38718;BME280;24468;52.128;9.278;2023-04-28T06:18:19;100435.44;;;12.53;71.09
38718;BME280;24468;52.128;9.278;2023-04-28T06:20:44;100437.69;;;12.44;70.42
38718;BME280;24468;52.128;9.278;2023-04-28T06:23:10;100435.84;;;12.45;70.53
38718;BME280;24468;52.128;9.278;2023-04-28T06:25:36;100433.78;;;12.50;69.05
38718;BME280;24468;52.128;9.278;2023-04-28T06:28:02;100429.25;;;12.51;68.77
38718;BME280;24468;52.128;9.278;2023-04-28T06:30:27;100424.19;;;12.60;69.80
38718;BME280;24468;52.128;9.278;2023-04-28T06:32:53;100416.28;;;12.73;69.26
38718;BME280;24468;52.128;9.278;2023-04-28T06:35:20;100425.03;;;12.45;69.67
38718;BME280;24468;52.128;9.278;2023-04-28T06:37:46;100424.44;;;12.56;69.51
38718;BME280;24468;52.128;9.278;2023-04-28T06:40:11;100417.00;;;12.43;69.67
38718;BME280;24468;52.128;9.278;2023-04-28T06:42:37;100411.47;;;12.62;68.45
38718;BME280;24468;52.128;9.278;2023-04-28T06:45:03;100404.88;;;12.84;67.14
38718;BME280;24468;52.128;9.278;2023-04-28T06:47:28;100404.25;;;12.95;68.59
38718;BME280;24468;52.128;9.278;2023-04-28T06:49:54;100412.47;;;12.93;67.31
38718;BME280;24468;52.128;9.278;2023-04-28T06:52:19;100397.88;;;12.96;67.16
38718;BME280;24468;52.128;9.278;2023-04-28T06:54:49;100403.81;;;13.02;67.27
38718;BME280;24468;52.128;9.278;2023-04-28T06:57:15;100400.41;;;13.15;66.42
38718;BME280;24468;52.128;9.278;2023-04-28T06:59:41;100399.38;;;13.01;65.67
38718;BME280;24468;52.128;9.278;2023-04-28T07:02:09;100394.81;;;13.18;65.68
38718;BME280;24468;52.128;9.278;2023-04-28T07:04:35;100397.28;;;13.06;66.20
38718;BME280;24468;52.128;9.278;2023-04-28T07:07:01;100392.78;;;13.21;64.93
38718;BME280;24468;52.128;9.278;2023-04-28T07:09:27;100391.06;;;13.20;65.82
38718;BME280;24468;52.128;9.278;2023-04-28T07:11:52;100390.22;;;13.36;65.94
38718;BME280;24468;52.128;9.278;2023-04-28T07:14:18;100385.09;;;13.61;64.32
38718;BME280;24468;52.128;9.278;2023-04-28T07:16:43;100380.31;;;13.81;64.33
38718;BME280;24468;52.128;9.278;2023-04-28T07:19:09;100388.22;;;13.69;63.24
38718;BME280;24468;52.128;9.278;2023-04-28T07:21:34;100381.78;;;13.86;64.04
38718;BME280;24468;52.128;9.278;2023-04-28T07:24:00;100373.97;;;13.96;62.70
38718;BME280;24468;52.128;9.278;2023-04-28T07:26:26;100374.53;;;14.01;62.36
38718;BME280;24468;52.128;9.278;2023-04-28T07:28:51;100374.31;;;13.90;61.31
38718;BME280;24468;52.128;9.278;2023-04-28T07:31:17;100362.97;;;13.83;62.93
38718;BME280;24468;52.128;9.278;2023-04-28T07:33:42;100363.19;;;13.94;62.95
38718;BME280;24468;52.128;9.278;2023-04-28T07:36:08;100363.38;;;13.91;63.73
38718;BME280;24468;52.128;9.278;2023-04-28T07:38:34;100358.34;;;13.85;64.36
38718;BME280;24468;52.128;9.278;2023-04-28T07:41:01;100367.16;;;14.03;62.58
38718;BME280;24468;52.128;9.278;2023-04-28T07:43:27;100359.41;;;13.83;62.69
38718;BME280;24468;52.128;9.278;2023-04-28T07:45:52;100371.34;;;13.64;63.45
38718;BME280;24468;52.128;9.278;2023-04-28T07:48:18;100372.44;;;13.76;63.37
38718;BME280;24468;52.128;9.278;2023-04-28T07:50:43;100365.81;;;13.96;64.36
38718;BME280;24468;52.128;9.278;2023-04-28T07:53:09;100369.69;;;14.06;63.58
38718;BME280;24468;52.128;9.278;2023-04-28T07:55:34;100369.09;;;14.01;66.58
38718;BME280;24468;52.128;9.278;2023-04-28T07:58:00;100364.91;;;13.81;68.39
38718;BME280;24468;52.128;9.278;2023-04-28T08:00:26;100361.63;;;13.90;68.17
38718;BME280;24468;52.128;9.278;2023-04-28T08:02:52;100360.34;;;13.82;68.67
38718;BME280;24468;52.128;9.278;2023-04-28T08:05:17;100356.31;;;14.03;68.31
38718;BME280;24468;52.128;9.278;2023-04-28T08:07:43;100350.03;;;13.88;69.05
38718;BME280;24468;52.128;9.278;2023-04-28T08:10:11;100351.38;;;13.95;67.18
38718;BME280;24468;52.128;9.278;2023-04-28T08:12:37;100345.94;;;13.95;68.27
38718;BME280;24468;52.128;9.278;2023-04-28T08:15:04;100342.72;;;13.74;68.66
38718;BME280;24468;52.128;9.278;2023-04-28T08:17:29;100347.50;;;13.85;67.30
38718;BME280;24468;52.128;9.278;2023-04-28T08:19:55;100346.97;;;13.78;68.53
38718;BME280;24468;52.128;9.278;2023-04-28T08:22:20;100343.94;;;14.13;68.15
38718;BME280;24468;52.128;9.278;2023-04-28T08:24:46;100335.13;;;14.24;68.35
38718;BME280;24468;52.128;9.278;2023-04-28T08:27:11;100343.06;;;14.13;68.14
38718;BME280;24468;52.128;9.278;2023-04-28T08:29:37;100344.88;;;13.98;69.65
38718;BME280;24468;52.128;9.278;2023-04-28T08:32:03;100349.84;;;14.06;70.36
38718;BME280;24468;52.128;9.278;2023-04-28T08:34:31;100344.66;;;13.87;71.20
38718;BME280;24468;52.128;9.278;2023-04-28T08:36:57;100339.84;;;14.06;69.79
38718;BME280;24468;52.128;9.278;2023-04-28T08:39:23;100343.94;;;14.42;68.46
38718;BME280;24468;52.128;9.278;2023-04-28T08:41:50;100336.22;;;14.64;67.22
38718;BME280;24468;52.128;9.278;2023-04-28T08:44:16;100337.56;;;14.57;68.09
38718;BME280;24468;52.128;9.278;2023-04-28T08:46:43;100343.19;;;14.40;67.84
38718;BME280;24468;52.128;9.278;2023-04-28T08:49:17;100336.00;;;14.24;67.59
38718;BME280;24468;52.128;9.278;2023-04-28T08:51:54;100342.78;;;14.32;68.88
38718;BME280;24468;52.128;9.278;2023-04-28T08:54:22;100333.28;;;14.39;68.83
38718;BME280;24468;52.128;9.278;2023-04-28T08:56:50;100337.94;;;14.08;69.60
38718;BME280;24468;52.128;9.278;2023-04-28T08:59:16;100327.09;;;14.51;68.61
38718;BME280;24468;52.128;9.278;2023-04-28T09:01:42;100313.81;;;14.18;69.82
38718;BME280;24468;52.128;9.278;2023-04-28T09:04:08;100313.13;;;14.29;69.59
38718;BME280;24468;52.128;9.278;2023-04-28T09:06:36;100315.72;;;14.44;68.85
38718;BME280;24468;52.128;9.278;2023-04-28T09:09:22;100309.56;;;14.57;69.50
38718;BME280;24468;52.128;9.278;2023-04-28T09:12:02;100305.75;;;14.74;68.45
38718;BME280;24468;52.128;9.278;2023-04-28T09:14:32;100306.31;;;14.79;68.64
38718;BME280;24468;52.128;9.278;2023-04-28T09:16:59;100312.47;;;14.95;68.61
38718;BME280;24468;52.128;9.278;2023-04-28T09:19:33;100307.41;;;14.62;70.15
38718;BME280;24468;52.128;9.278;2023-04-28T09:22:00;100306.00;;;14.83;67.65
38718;BME280;24468;52.128;9.278;2023-04-28T09:24:34;100297.53;;;14.88;67.41
38718;BME280;24468;52.128;9.278;2023-04-28T09:27:03;100307.06;;;15.22;67.58
38718;BME280;24468;52.128;9.278;2023-04-28T09:29:30;100299.09;;;14.92;68.13
38718;BME280;24468;52.128;9.278;2023-04-28T09:32:17;100308.00;;;14.94;69.22
38718;BME280;24468;52.128;9.278;2023-04-28T09:34:45;100312.91;;;14.75;69.35
38718;BME280;24468;52.128;9.278;2023-04-28T09:39:46;100301.69;;;14.38;69.85
38718;BME280;24468;52.128;9.278;2023-04-28T09:42:31;100313.59;;;14.78;70.20
38718;BME280;24468;52.128;9.278;2023-04-28T09:44:57;100315.34;;;15.06;70.07
38718;BME280;24468;52.128;9.278;2023-04-28T09:47:23;100317.75;;;15.11;71.38
38718;BME280;24468;52.128;9.278;2023-04-28T09:49:57;100312.69;;;14.92;72.96
38718;BME280;24468;52.128;9.278;2023-04-28T09:52:24;100317.34;;;14.90;74.53
38718;BME280;24468;52.128;9.278;2023-04-28T09:54:52;100316.41;;;14.77;76.30
38718;BME280;24468;52.128;9.278;2023-04-28T09:57:19;100311.94;;;14.76;75.19
38718;BME280;24468;52.128;9.278;2023-04-28T09:59:50;100312.66;;;14.65;75.86
38718;BME280;24468;52.128;9.278;2023-04-28T10:02:18;100301.19;;;14.74;76.24
38718;BME280;24468;52.128;9.278;2023-04-28T10:04:48;100302.84;;;14.48;75.84
38718;BME280;24468;52.128;9.278;2023-04-28T10:07:15;100296.66;;;14.60;77.35
38718;BME280;24468;52.128;9.278;2023-04-28T10:09:44;100304.06;;;14.85;76.42
38718;BME280;24468;52.128;9.278;2023-04-28T10:12:13;100301.28;;;14.73;77.84
38718;BME280;24468;52.128;9.278;2023-04-28T10:14:40;100295.53;;;14.77;77.07
38718;BME280;24468;52.128;9.278;2023-04-28T10:17:07;100303.03;;;14.74;79.28
38718;BME280;24468;52.128;9.278;2023-04-28T10:19:33;100301.69;;;14.52;84.66
38718;BME280;24468;52.128;9.278;2023-04-28T10:25:32;100295.94;;;14.71;85.54
38718;BME280;24468;52.128;9.278;2023-04-28T10:28:03;100299.16;;;14.63;87.66
38718;BME280;24468;52.128;9.278;2023-04-28T10:30:29;100289.69;;;14.56;87.41
38718;BME280;24468;52.128;9.278;2023-04-28T10:35:43;100276.94;;;14.71;85.99
38718;BME280;24468;52.128;9.278;2023-04-28T10:38:17;100264.53;;;14.67;86.67
38718;BME280;24468;52.128;9.278;2023-04-28T10:40:50;100265.94;;;14.87;84.21
38718;BME280;24468;52.128;9.278;2023-04-28T10:58:49;100247.50;;;15.57;96.92
38718;BME280;24468;52.128;9.278;2023-04-28T11:07:19;100247.69;;;15.69;100.00
38718;BME280;24468;52.128;9.278;2023-04-28T11:12:12;100242.59;;;15.77;99.04
38718;BME280;24468;52.128;9.278;2023-04-28T11:14:38;100248.22;;;15.87;99.45
38718;BME280;24468;52.128;9.278;2023-04-28T11:17:08;100241.47;;;15.92;99.31
38718;BME280;24468;52.128;9.278;2023-04-28T11:19:42;100241.06;;;15.86;99.87
38718;BME280;24468;52.128;9.278;2023-04-28T11:24:58;100235.56;;;15.47;96.48
38718;BME280;24468;52.128;9.278;2023-04-28T11:27:25;100237.56;;;15.84;99.06
38718;BME280;24468;52.128;9.278;2023-04-28T11:29:51;100243.00;;;15.71;100.00
38718;BME280;24468;52.128;9.278;2023-04-28T11:32:29;100246.03;;;15.66;100.00
38718;BME280;24468;52.128;9.278;2023-04-28T11:34:54;100247.41;;;15.59;100.00
38718;BME280;24468;52.128;9.278;2023-04-28T11:37:20;100253.66;;;15.74;100.00
38718;BME280;24468;52.128;9.278;2023-04-28T11:39:47;100253.72;;;15.60;100.00
38718;BME280;24468;52.128;9.278;2023-04-28T11:42:12;100261.66;;;15.63;100.00
38718;BME280;24468;52.128;9.278;2023-04-28T11:44:38;100253.69;;;15.34;100.00
38718;BME280;24468;52.128;9.278;2023-04-28T11:47:05;100251.28;;;15.29;100.00
38718;BME280;24468;52.128;9.278;2023-04-28T11:49:42;100250.50;;;15.27;100.00
38718;BME280;24468;52.128;9.278;2023-04-28T11:52:09;100248.69;;;15.28;100.00
38718;BME280;24468;52.128;9.278;2023-04-28T11:54:35;100250.03;;;15.08;100.00
38718;BME280;24468;52.128;9.278;2023-04-28T11:57:02;100243.91;;;15.31;100.00
38718;BME280;24468;52.128;9.278;2023-04-28T11:59:34;100246.69;;;15.17;100.00
38718;BME280;24468;52.128;9.278;2023-04-28T12:02:05;100236.47;;;15.21;100.00
38718;BME280;24468;52.128;9.278;2023-04-28T12:04:35;100243.38;;;14.99;100.00
38718;BME280;24468;52.128;9.278;2023-04-28T12:07:16;100229.88;;;15.25;100.00
38718;BME280;24468;52.128;9.278;2023-04-28T12:10:10;100232.44;;;15.13;100.00
38718;BME280;24468;52.128;9.278;2023-04-28T12:12:36;100221.50;;;15.28;100.00
38718;BME280;24468;52.128;9.278;2023-04-28T12:15:05;100225.31;;;15.38;100.00
38718;BME280;24468;52.128;9.278;2023-04-28T12:17:41;100221.63;;;15.52;100.00
38718;BME280;24468;52.128;9.278;2023-04-28T12:20:09;100220.56;;;15.42;100.00
38718;BME280;24468;52.128;9.278;2023-04-28T12:22:49;100212.06;;;15.46;100.00
38718;BME280;24468;52.128;9.278;2023-04-28T12:25:18;100222.38;;;15.41;100.00
38718;BME280;24468;52.128;9.278;2023-04-28T12:28:04;100217.50;;;15.46;100.00
38718;BME280;24468;52.128;9.278;2023-04-28T12:30:32;100217.78;;;15.69;100.00
38718;BME280;24468;52.128;9.278;2023-04-28T12:32:58;100199.91;;;15.90;100.00
38718;BME280;24468;52.128;9.278;2023-04-28T12:35:26;100196.53;;;15.99;100.00
38718;BME280;24468;52.128;9.278;2023-04-28T12:37:53;100209.38;;;15.97;100.00
38718;BME280;24468;52.128;9.278;2023-04-28T12:40:20;100199.56;;;16.08;100.00
38718;BME280;24468;52.128;9.278;2023-04-28T12:42:46;100196.06;;;16.18;100.00
38718;BME280;24468;52.128;9.278;2023-04-28T12:45:12;100199.34;;;16.48;100.00
38718;BME280;24468;52.128;9.278;2023-04-28T12:47:37;100198.53;;;16.58;100.00
38718;BME280;24468;52.128;9.278;2023-04-28T12:50:05;100188.22;;;16.51;100.00
38718;BME280;24468;52.128;9.278;2023-04-28T12:52:31;100192.84;;;16.98;100.00
38718;BME280;24468;52.128;9.278;2023-04-28T12:54:58;100194.72;;;17.09;100.00
38718;BME280;24468;52.128;9.278;2023-04-28T12:57:24;100182.06;;;17.08;100.00
38718;BME280;24468;52.128;9.278;2023-04-28T12:59:50;100183.97;;;16.83;100.00
38718;BME280;24468;52.128;9.278;2023-04-28T13:02:17;100184.72;;;17.21;100.00
38718;BME280;24468;52.128;9.278;2023-04-28T13:04:43;100184.75;;;17.32;100.00
38718;BME280;24468;52.128;9.278;2023-04-28T13:07:11;100183.63;;;17.23;100.00
38718;BME280;24468;52.128;9.278;2023-04-28T13:09:37;100182.97;;;17.66;100.00
38718;BME280;24468;52.128;9.278;2023-04-28T13:12:03;100178.91;;;17.14;100.00
38718;BME280;24468;52.128;9.278;2023-04-28T13:14:29;100182.41;;;16.92;100.00
38718;BME280;24468;52.128;9.278;2023-04-28T13:16:55;100178.72;;;17.51;100.00
38718;BME280;24468;52.128;9.278;2023-04-28T13:19:22;100176.22;;;17.37;100.00
38718;BME280;24468;52.128;9.278;2023-04-28T13:21:47;100178.28;;;16.86;100.00
38718;BME280;24468;52.128;9.278;2023-04-28T13:24:13;100182.34;;;17.16;100.00